createdAt,value
2024-01-31T00:00:08.555Z,49.17
2024-01-31T00:02:36.337Z,51.70
2024-01-31T00:05:04.318Z,47.50
2024-01-31T00:07:32.144Z,57.57
2024-01-31T00:09:59.781Z,62.17
2024-01-31T00:12:29.351Z,66.67
2024-01-31T00:14:56.961Z,73.93
2024-01-31T00:17:24.579Z,68.97
2024-01-31T00:19:52.250Z,64.53
2024-01-31T00:22:20.090Z,58.27
2024-01-31T00:24:47.623Z,65.83
2024-01-31T00:27:15.218Z,67.37
2024-01-31T00:29:42.717Z,59.87
2024-01-31T00:32:10.287Z,53.93
2024-01-31T00:34:38.088Z,64.40
2024-01-31T00:37:05.872Z,70.80
2024-01-31T00:39:34.411Z,67.20
2024-01-31T00:42:02.504Z,72.40
2024-01-31T00:44:30.021Z,73.10
2024-01-31T00:46:57.574Z,62.23
2024-01-31T00:49:26.412Z,64.50
2024-01-31T00:51:54.472Z,66.53
2024-01-31T00:54:22.688Z,63.00
2024-01-31T00:56:50.277Z,63.73
2024-01-31T00:59:18.121Z,64.37
2024-01-31T01:01:45.732Z,56.87
2024-01-31T01:04:13.482Z,57.03
2024-01-31T01:06:41.578Z,60.30
2024-01-31T01:09:09.790Z,59.87
2024-01-31T01:11:37.225Z,55.77
2024-01-31T01:14:04.785Z,58.47
2024-01-31T01:16:32.359Z,62.10
2024-01-31T01:19:00.166Z,57.77
2024-01-31T01:21:27.829Z,63.30
2024-01-31T01:23:55.506Z,57.03
2024-01-31T01:26:23.086Z,58.00
2024-01-31T01:28:50.714Z,59.90
2024-01-31T01:31:19.734Z,57.73
2024-01-31T01:33:47.413Z,64.33
2024-01-31T01:36:16.471Z,58.93
2024-01-31T01:38:43.935Z,60.57
2024-01-31T01:41:11.800Z,58.97
2024-01-31T01:43:41.193Z,63.73
2024-01-31T01:46:08.779Z,58.83
2024-01-31T01:48:37.038Z,59.33
2024-01-31T01:51:05.852Z,51.73
2024-01-31T01:53:35.179Z,57.97
2024-01-31T01:56:05.771Z,52.87
2024-01-31T01:58:36.616Z,52.60
2024-01-31T02:01:04.823Z,50.27
2024-01-31T02:03:32.782Z,53.50
2024-01-31T02:06:01.918Z,49.13
2024-01-31T02:08:29.926Z,48.70
2024-01-31T02:10:57.806Z,47.80
2024-01-31T02:13:25.635Z,52.37
2024-01-31T02:15:53.266Z,58.80
2024-01-31T02:18:21.311Z,49.50
2024-01-31T02:20:49.005Z,56.17
2024-01-31T02:23:16.906Z,55.13
2024-01-31T02:25:44.725Z,56.83
2024-01-31T02:28:12.526Z,58.13
2024-01-31T02:30:40.032Z,55.37
2024-01-31T02:33:07.814Z,54.77
2024-01-31T02:35:36.247Z,59.20
2024-01-31T02:38:03.814Z,55.50
2024-01-31T02:40:31.430Z,54.60
2024-01-31T02:43:00.154Z,50.93
2024-01-31T02:45:31.390Z,52.30
2024-01-31T02:47:59.181Z,50.67
2024-01-31T02:50:28.183Z,46.97
2024-01-31T02:52:55.841Z,49.77
2024-01-31T02:55:23.519Z,45.60
2024-01-31T02:57:51.086Z,50.43
2024-01-31T03:00:18.710Z,49.13
2024-01-31T03:02:46.342Z,47.17
2024-01-31T03:05:14.462Z,46.60
2024-01-31T03:07:42.398Z,45.20
2024-01-31T03:10:11.474Z,45.03
2024-01-31T03:12:39.230Z,47.93
2024-01-31T03:15:07.217Z,51.03
2024-01-31T03:17:37.728Z,52.17
2024-01-31T03:20:07.394Z,55.03
2024-01-31T03:22:38.492Z,55.03
2024-01-31T03:25:06.544Z,52.00
2024-01-31T03:27:35.148Z,51.87
2024-01-31T03:30:09.122Z,53.07
2024-01-31T03:32:38.260Z,58.67
2024-01-31T03:35:06.094Z,61.03
2024-01-31T03:37:34.005Z,61.00
2024-01-31T03:40:01.823Z,64.63
2024-01-31T03:42:29.556Z,66.47
2024-01-31T03:44:58.409Z,63.17
2024-01-31T03:47:25.968Z,66.97
2024-01-31T03:49:55.680Z,54.63
2024-01-31T03:52:24.271Z,49.67
2024-01-31T03:54:51.893Z,48.03
2024-01-31T03:57:20.585Z,47.83
2024-01-31T03:59:48.067Z,47.50
2024-01-31T04:02:15.624Z,44.10
2024-01-31T04:04:43.538Z,45.23
2024-01-31T04:07:11.042Z,46.73
2024-01-31T04:09:38.732Z,46.67
2024-01-31T04:12:06.691Z,50.63
2024-01-31T04:14:34.300Z,50.90
2024-01-31T04:17:01.732Z,50.07
2024-01-31T04:19:29.942Z,50.00
2024-01-31T04:21:57.441Z,54.67
2024-01-31T04:24:25.105Z,49.07
2024-01-31T04:26:53.013Z,57.57
2024-01-31T04:29:20.793Z,59.97
2024-01-31T04:31:55.233Z,58.87
2024-01-31T04:34:23.205Z,71.67
2024-01-31T04:36:51.041Z,63.27
2024-01-31T04:39:18.512Z,60.20
2024-01-31T04:41:48.377Z,65.40
2024-01-31T04:44:16.017Z,61.83
2024-01-31T04:46:43.757Z,57.17
2024-01-31T04:49:11.579Z,59.10
2024-01-31T04:51:42.686Z,57.83
2024-01-31T04:54:10.357Z,54.00
2024-01-31T04:56:38.178Z,55.03
2024-01-31T04:59:05.687Z,53.90
2024-01-31T05:01:33.342Z,57.53
2024-01-31T05:04:01.240Z,65.67
2024-01-31T05:06:29.209Z,61.00
2024-01-31T05:08:57.070Z,60.43
2024-01-31T05:11:24.520Z,60.67
2024-01-31T05:13:52.567Z,47.90
2024-01-31T05:16:20.339Z,58.60
2024-01-31T05:18:48.183Z,59.50
2024-01-31T05:21:15.971Z,63.43
2024-01-31T05:23:43.510Z,62.43
2024-01-31T05:26:11.696Z,65.13
2024-01-31T05:28:39.816Z,62.57
2024-01-31T05:31:07.478Z,65.30
2024-01-31T05:33:35.116Z,77.87
2024-01-31T05:36:04.235Z,79.27
2024-01-31T05:38:31.870Z,87.37
2024-01-31T05:40:59.363Z,78.27
2024-01-31T05:43:27.047Z,73.13
2024-01-31T05:45:54.653Z,76.80
2024-01-31T05:48:22.275Z,79.07
2024-01-31T05:50:49.849Z,78.73
2024-01-31T05:53:17.562Z,75.13
2024-01-31T05:55:45.338Z,84.53
2024-01-31T05:58:12.979Z,79.87
2024-01-31T06:00:42.194Z,88.93
2024-01-31T06:03:09.910Z,86.37
2024-01-31T06:05:37.466Z,91.13
2024-01-31T06:08:07.981Z,87.87
2024-01-31T06:10:36.196Z,78.27
2024-01-31T06:13:04.405Z,78.63
2024-01-31T06:15:32.054Z,82.70
2024-01-31T06:17:59.689Z,70.33
2024-01-31T06:20:27.629Z,70.17
2024-01-31T06:22:55.202Z,69.53
2024-01-31T06:25:22.677Z,71.73
2024-01-31T06:27:50.354Z,65.60
2024-01-31T06:30:22.586Z,66.87
2024-01-31T06:32:51.072Z,61.10
2024-01-31T06:35:18.732Z,60.70
2024-01-31T06:37:46.666Z,62.17
2024-01-31T06:40:14.355Z,61.83
2024-01-31T06:42:41.889Z,61.07
2024-01-31T06:45:11.222Z,58.10
2024-01-31T06:47:39.826Z,59.73
2024-01-31T06:50:07.620Z,59.73
2024-01-31T06:52:35.629Z,70.43
2024-01-31T06:55:03.294Z,63.00
2024-01-31T06:57:31.962Z,53.90
2024-01-31T06:59:59.487Z,51.63
2024-01-31T07:02:27.451Z,48.90
2024-01-31T07:04:55.658Z,53.13
2024-01-31T07:07:23.385Z,52.70
2024-01-31T07:09:51.103Z,49.17
2024-01-31T07:12:18.595Z,53.57
2024-01-31T07:14:46.158Z,49.83
2024-01-31T07:17:13.724Z,55.20
2024-01-31T07:19:45.008Z,52.63
2024-01-31T07:22:12.776Z,47.03
2024-01-31T07:24:40.501Z,50.87
2024-01-31T07:27:08.074Z,51.53
2024-01-31T07:29:35.550Z,51.30
2024-01-31T07:32:03.157Z,54.43
2024-01-31T07:34:30.848Z,52.73
2024-01-31T07:36:58.658Z,56.63
2024-01-31T07:39:26.272Z,53.23
2024-01-31T07:41:54.013Z,54.10
2024-01-31T07:44:21.568Z,53.67
2024-01-31T07:46:49.264Z,54.57
2024-01-31T07:49:16.995Z,54.27
2024-01-31T07:51:45.184Z,54.97
2024-01-31T07:54:13.308Z,57.13
2024-01-31T07:56:40.747Z,56.10
2024-01-31T07:59:08.391Z,61.37
2024-01-31T08:01:36.283Z,67.80
2024-01-31T08:04:05.147Z,65.73
2024-01-31T08:06:32.874Z,69.13
2024-01-31T08:09:07.865Z,73.43
2024-01-31T08:11:43.628Z,63.50
2024-01-31T08:14:11.267Z,60.10
2024-01-31T08:16:39.514Z,65.00
2024-01-31T08:19:08.089Z,64.97
2024-01-31T08:21:35.781Z,59.27
2024-01-31T08:24:03.623Z,63.47
2024-01-31T08:26:31.177Z,64.10
2024-01-31T08:29:10.096Z,63.13
2024-01-31T08:31:43.383Z,62.13
2024-01-31T08:34:12.995Z,65.00
2024-01-31T08:36:43.849Z,60.23
2024-01-31T08:39:11.241Z,66.40
2024-01-31T08:41:38.927Z,61.17
2024-01-31T08:44:07.083Z,67.03
2024-01-31T08:46:47.614Z,65.83
2024-01-31T08:49:22.613Z,66.37
2024-01-31T08:51:50.452Z,59.40
2024-01-31T08:54:17.906Z,62.43
2024-01-31T08:56:45.389Z,59.77
2024-01-31T08:59:13.816Z,58.47
2024-01-31T09:01:45.190Z,57.70
2024-01-31T09:04:12.930Z,65.77
2024-01-31T09:06:42.461Z,68.87
2024-01-31T09:09:10.092Z,60.33
2024-01-31T09:11:37.569Z,62.33
2024-01-31T09:14:05.077Z,61.07
2024-01-31T09:16:32.710Z,61.67
2024-01-31T09:19:00.544Z,57.77
2024-01-31T09:21:28.903Z,108.97
2024-01-31T09:23:56.700Z,92.23
2024-01-31T09:26:24.526Z,64.67
2024-01-31T09:28:51.963Z,58.57
2024-01-31T09:31:23.202Z,61.90
2024-01-31T09:33:54.462Z,61.67
2024-01-31T09:36:22.908Z,61.40
2024-01-31T09:38:50.807Z,65.50
2024-01-31T09:41:18.636Z,62.60
2024-01-31T09:43:46.564Z,67.77
2024-01-31T09:46:15.148Z,62.47
2024-01-31T09:48:43.038Z,68.53
2024-01-31T09:51:10.653Z,60.83
2024-01-31T09:53:38.488Z,69.77
2024-01-31T09:56:09.639Z,63.20
2024-01-31T09:58:38.390Z,67.13
2024-01-31T10:01:14.582Z,64.87
2024-01-31T10:03:49.282Z,63.87
2024-01-31T10:06:18.501Z,63.97
2024-01-31T10:08:48.331Z,67.87
2024-01-31T10:11:15.901Z,67.47
2024-01-31T10:13:45.994Z,69.97
2024-01-31T10:16:16.784Z,74.83
2024-01-31T10:18:44.945Z,65.17
2024-01-31T10:21:12.449Z,63.20
2024-01-31T10:23:40.128Z,65.60
2024-01-31T10:26:11.488Z,68.53
2024-01-31T10:28:43.810Z,72.17
2024-01-31T10:31:14.157Z,66.00
2024-01-31T10:33:42.025Z,71.67
2024-01-31T10:37:07.742Z,70.03
2024-01-31T10:38:57.852Z,68.23
2024-01-31T10:41:26.160Z,66.30
2024-01-31T10:43:54.564Z,66.30
2024-01-31T10:46:22.180Z,67.97
2024-01-31T10:48:49.987Z,72.10
2024-01-31T10:51:21.607Z,67.07
2024-01-31T10:53:50.975Z,69.87
2024-01-31T10:56:19.512Z,67.30
2024-01-31T10:58:48.069Z,70.67
2024-01-31T11:01:19.151Z,69.23
2024-01-31T11:03:47.539Z,72.97
2024-01-31T11:06:15.690Z,65.10
2024-01-31T11:08:45.626Z,67.10
2024-01-31T11:11:13.239Z,68.67
2024-01-31T11:13:41.129Z,66.23
2024-01-31T11:16:09.161Z,71.27
2024-01-31T11:18:38.471Z,64.47
2024-01-31T11:21:11.618Z,77.53
2024-01-31T11:23:41.133Z,64.10
2024-01-31T11:26:10.187Z,71.07
2024-01-31T11:28:42.999Z,67.63
2024-01-31T11:31:10.841Z,67.43
2024-01-31T11:33:38.782Z,63.60
2024-01-31T11:36:09.563Z,66.30
2024-01-31T11:38:39.245Z,65.47
2024-01-31T11:41:06.711Z,66.93
2024-01-31T11:43:34.357Z,67.67
2024-01-31T11:46:01.940Z,71.87
2024-01-31T11:48:29.725Z,66.03
2024-01-31T11:50:57.519Z,62.37
2024-01-31T11:53:25.942Z,70.53
2024-01-31T11:55:53.783Z,71.80
2024-01-31T11:58:21.304Z,66.47
2024-01-31T12:00:50.452Z,72.80
2024-01-31T12:03:17.994Z,66.00
2024-01-31T12:05:45.826Z,73.33
2024-01-31T12:08:19.652Z,67.17
2024-01-31T12:10:47.241Z,60.60
2024-01-31T12:13:15.041Z,68.60
2024-01-31T12:15:43.179Z,66.37
2024-01-31T12:18:13.183Z,64.93
2024-01-31T12:20:40.897Z,71.20
2024-01-31T12:23:08.723Z,72.03
2024-01-31T12:25:36.257Z,73.30
2024-01-31T12:28:04.380Z,73.37
2024-01-31T12:30:32.911Z,74.30
2024-01-31T12:33:01.236Z,78.97
2024-01-31T12:35:28.986Z,79.33
2024-01-31T12:37:56.388Z,74.07
2024-01-31T12:40:24.049Z,76.93
2024-01-31T12:42:52.292Z,70.33
2024-01-31T12:45:20.056Z,75.93
2024-01-31T12:47:50.771Z,67.90
2024-01-31T12:50:18.688Z,62.87
2024-01-31T12:52:46.199Z,67.60
2024-01-31T12:55:13.779Z,66.37
2024-01-31T12:57:41.467Z,68.23
2024-01-31T13:00:09.292Z,69.77
2024-01-31T13:02:36.902Z,67.43
2024-01-31T13:05:04.923Z,67.33
2024-01-31T13:07:32.940Z,73.60
2024-01-31T13:10:01.069Z,75.93
2024-01-31T13:12:28.941Z,75.10
2024-01-31T13:14:56.766Z,71.73
2024-01-31T13:17:24.329Z,69.70
2024-01-31T13:19:52.253Z,71.60
2024-01-31T13:22:19.827Z,72.77
2024-01-31T13:24:48.202Z,74.67
2024-01-31T13:27:15.909Z,73.80
2024-01-31T13:29:43.433Z,76.17
2024-01-31T13:32:11.248Z,74.73
2024-01-31T13:34:40.175Z,69.97
2024-01-31T13:37:08.436Z,76.23
2024-01-31T13:39:36.549Z,84.03
2024-01-31T13:42:04.764Z,77.97
2024-01-31T13:44:32.480Z,79.67
2024-01-31T13:46:59.974Z,81.03
2024-01-31T13:49:27.805Z,79.40
2024-01-31T13:51:55.244Z,80.30
2024-01-31T13:54:22.950Z,80.70
2024-01-31T13:56:50.570Z,78.10
2024-01-31T13:59:18.121Z,88.00
2024-01-31T14:01:45.603Z,89.93
2024-01-31T14:04:13.371Z,94.97
2024-01-31T14:06:40.943Z,89.80
2024-01-31T14:09:10.236Z,86.10
2024-01-31T14:11:38.061Z,84.00
2024-01-31T14:14:05.511Z,85.33
2024-01-31T14:16:32.929Z,86.77
2024-01-31T14:19:00.767Z,85.67
2024-01-31T14:21:28.332Z,82.20
2024-01-31T14:24:01.334Z,83.33
2024-01-31T14:26:36.727Z,86.07
2024-01-31T14:29:04.292Z,83.23
2024-01-31T14:31:31.920Z,83.63
2024-01-31T14:33:59.780Z,80.73
2024-01-31T14:36:27.242Z,85.13
2024-01-31T14:38:54.674Z,84.53
2024-01-31T14:41:22.547Z,85.53
2024-01-31T14:43:50.126Z,96.10
2024-01-31T14:46:17.738Z,87.83
2024-01-31T14:48:45.499Z,83.23
2024-01-31T14:51:13.160Z,86.57
2024-01-31T14:53:40.761Z,89.03
2024-01-31T14:56:08.223Z,94.80
2024-01-31T14:58:35.853Z,88.57
2024-01-31T15:01:03.493Z,88.90
2024-01-31T15:03:31.089Z,97.83
2024-01-31T15:05:59.804Z,92.43
2024-01-31T15:08:28.663Z,98.83
2024-01-31T15:10:56.396Z,95.50
2024-01-31T15:13:24.025Z,98.80
2024-01-31T15:15:51.713Z,92.77
2024-01-31T15:18:19.648Z,94.17
2024-01-31T15:20:47.728Z,95.60
2024-01-31T15:23:15.309Z,92.77
2024-01-31T15:25:42.771Z,94.40
2024-01-31T15:28:10.286Z,101.30
2024-01-31T15:30:37.764Z,98.37
2024-01-31T15:33:05.528Z,101.97
2024-01-31T15:35:33.396Z,96.73
2024-01-31T15:38:01.021Z,98.13
2024-01-31T15:40:30.097Z,98.13
2024-01-31T15:42:57.795Z,90.53
2024-01-31T15:45:25.595Z,98.73
2024-01-31T15:47:53.142Z,93.40
2024-01-31T15:50:23.262Z,93.80
2024-01-31T15:52:51.222Z,99.83
2024-01-31T15:55:18.677Z,111.93
2024-01-31T15:57:46.091Z,97.40
2024-01-31T16:00:13.998Z,103.87
2024-01-31T16:02:41.529Z,109.37
2024-01-31T16:05:10.017Z,110.07
2024-01-31T16:07:37.564Z,107.00
2024-01-31T16:10:05.371Z,115.83
2024-01-31T16:12:33.492Z,110.10
2024-01-31T16:15:01.272Z,110.47
2024-01-31T16:17:28.866Z,115.03
2024-01-31T16:19:56.570Z,119.27
2024-01-31T16:22:24.628Z,118.00
2024-01-31T16:24:52.178Z,118.73
2024-01-31T16:27:19.658Z,117.40
2024-01-31T16:29:47.248Z,118.40
2024-01-31T16:32:16.019Z,130.50
2024-01-31T16:34:43.576Z,122.90
2024-01-31T16:37:11.252Z,121.30
2024-01-31T16:39:38.776Z,122.77
2024-01-31T16:42:06.414Z,123.60
2024-01-31T16:44:34.013Z,121.70
2024-01-31T16:47:04.118Z,127.73
2024-01-31T16:49:31.729Z,120.17
2024-01-31T16:52:00.878Z,121.63
2024-01-31T16:54:28.365Z,123.77
2024-01-31T16:56:56.366Z,124.67
2024-01-31T16:59:23.858Z,127.10
2024-01-31T17:01:51.463Z,125.20
2024-01-31T17:04:19.473Z,116.47
2024-01-31T17:06:47.549Z,119.77
2024-01-31T17:09:15.376Z,128.33
2024-01-31T17:11:43.157Z,122.20
2024-01-31T17:14:10.663Z,127.13
2024-01-31T17:16:44.711Z,122.87
2024-01-31T17:19:12.698Z,121.07
2024-01-31T17:21:40.618Z,119.10
2024-01-31T17:24:08.408Z,124.47
2024-01-31T17:26:35.931Z,119.80
2024-01-31T17:29:03.367Z,122.17
2024-01-31T17:31:33.755Z,122.67
2024-01-31T17:34:01.432Z,126.23
2024-01-31T17:36:30.582Z,119.47
2024-01-31T17:38:59.756Z,125.10
2024-01-31T17:41:27.447Z,130.63
2024-01-31T17:43:55.268Z,125.93
2024-01-31T17:46:23.432Z,122.47
2024-01-31T17:48:51.500Z,134.37
2024-01-31T17:51:19.131Z,145.93
2024-01-31T17:53:46.684Z,134.07
2024-01-31T17:56:17.449Z,142.00
2024-01-31T17:58:45.079Z,135.33
2024-01-31T18:01:12.811Z,134.80
2024-01-31T18:03:40.369Z,140.13
2024-01-31T18:06:08.232Z,127.57
2024-01-31T18:08:36.008Z,122.93
2024-01-31T18:11:04.092Z,122.93
2024-01-31T18:13:31.561Z,121.93
2024-01-31T18:15:59.250Z,121.97
2024-01-31T18:18:27.039Z,118.37
2024-01-31T18:20:54.991Z,125.00
2024-01-31T18:23:22.571Z,119.90
2024-01-31T18:25:50.166Z,119.07
2024-01-31T18:28:17.763Z,124.53
2024-01-31T18:30:45.244Z,119.67
2024-01-31T18:33:13.081Z,119.47
2024-01-31T18:38:08.438Z,122.30
2024-01-31T18:40:35.905Z,122.23
2024-01-31T18:43:03.446Z,120.80
2024-01-31T18:45:31.091Z,129.47
2024-01-31T18:47:58.693Z,129.63
2024-01-31T18:50:26.417Z,125.60
2024-01-31T18:52:53.909Z,130.23
2024-01-31T18:55:21.403Z,134.93
2024-01-31T18:57:48.938Z,123.87
2024-01-31T19:00:16.659Z,121.60
2024-01-31T19:02:44.284Z,125.93
2024-01-31T19:05:12.034Z,128.47
2024-01-31T19:07:40.090Z,135.90
2024-01-31T19:10:07.736Z,126.57
2024-01-31T19:12:35.703Z,128.27
2024-01-31T19:15:03.282Z,132.20
2024-01-31T19:17:36.275Z,133.23
2024-01-31T19:20:11.628Z,131.37
2024-01-31T19:22:46.109Z,134.70
2024-01-31T19:25:13.714Z,131.07
2024-01-31T19:27:41.305Z,133.73
2024-01-31T19:30:14.636Z,143.50
2024-01-31T19:32:44.740Z,144.17
2024-01-31T19:35:12.409Z,145.33
2024-01-31T19:37:39.998Z,150.53
2024-01-31T19:40:07.839Z,153.33
2024-01-31T19:42:35.653Z,149.93
2024-01-31T19:45:04.051Z,158.17
2024-01-31T19:47:31.478Z,161.37
2024-01-31T19:49:59.142Z,170.37
2024-01-31T19:52:26.899Z,168.37
2024-01-31T19:54:54.694Z,167.70
2024-01-31T19:57:22.401Z,164.80
2024-01-31T19:59:49.925Z,167.60
2024-01-31T20:02:17.582Z,162.17
2024-01-31T20:04:45.809Z,160.93
2024-01-31T20:07:13.448Z,160.53
2024-01-31T20:09:41.534Z,159.63
2024-01-31T20:12:09.296Z,165.73
2024-01-31T20:14:36.994Z,169.63
2024-01-31T20:17:04.652Z,161.93
2024-01-31T20:19:32.404Z,165.97
2024-01-31T20:21:59.941Z,175.87
2024-01-31T20:24:28.767Z,172.47
2024-01-31T20:26:56.579Z,175.77
2024-01-31T20:29:24.800Z,168.53
2024-01-31T20:31:52.472Z,168.77
2024-01-31T20:34:20.263Z,167.90
2024-01-31T20:36:47.983Z,164.00
2024-01-31T20:39:15.666Z,169.83
2024-01-31T20:41:44.336Z,170.50
2024-01-31T20:44:11.918Z,175.77
2024-01-31T20:46:39.457Z,165.93
2024-01-31T20:49:07.239Z,173.80
2024-01-31T20:51:34.795Z,174.23
2024-01-31T20:54:02.999Z,179.27
2024-01-31T20:56:30.776Z,167.87
2024-01-31T20:58:59.841Z,171.73
2024-01-31T21:01:27.420Z,177.13
2024-01-31T21:03:55.221Z,172.53
2024-01-31T21:06:22.914Z,173.77
2024-01-31T21:08:51.014Z,185.30
2024-01-31T21:11:18.685Z,171.23
2024-01-31T21:13:47.443Z,173.17
2024-01-31T21:16:15.370Z,175.80
2024-01-31T21:18:42.920Z,172.33
2024-01-31T21:21:10.701Z,168.13
2024-01-31T21:23:38.233Z,175.40
2024-01-31T21:26:05.785Z,175.07
2024-01-31T21:28:33.459Z,172.50
2024-01-31T21:31:00.874Z,178.67
2024-01-31T21:33:28.713Z,180.50
2024-01-31T21:35:57.210Z,169.80
2024-01-31T21:38:24.697Z,180.33
2024-01-31T21:40:54.269Z,185.30
2024-01-31T21:43:22.064Z,179.63
2024-01-31T21:45:49.797Z,191.57
2024-01-31T21:48:17.393Z,201.07
2024-01-31T21:50:44.918Z,202.20
2024-01-31T21:53:12.453Z,199.03
2024-01-31T21:55:40.347Z,206.07
2024-01-31T21:58:07.914Z,206.53
2024-01-31T22:00:35.593Z,201.23
2024-01-31T22:03:03.212Z,202.13
2024-01-31T22:05:30.840Z,206.60
2024-01-31T22:07:58.380Z,195.80
2024-01-31T22:10:26.021Z,198.00
2024-01-31T22:12:53.385Z,199.50
2024-01-31T22:15:21.200Z,195.13
2024-01-31T22:17:49.133Z,205.07
2024-01-31T22:20:19.532Z,199.13
2024-01-31T22:22:50.672Z,204.23
2024-01-31T22:25:18.305Z,199.67
2024-01-31T22:27:48.668Z,208.30
2024-01-31T22:30:17.497Z,200.57
2024-01-31T22:32:45.240Z,201.70
2024-01-31T22:35:13.049Z,204.53
2024-01-31T22:37:40.581Z,204.13
2024-01-31T22:40:08.598Z,215.73
2024-01-31T22:42:36.333Z,211.37
2024-01-31T22:45:03.983Z,221.57
2024-01-31T22:47:31.726Z,211.50
2024-01-31T22:49:59.206Z,224.80
2024-01-31T22:52:27.458Z,210.13
2024-01-31T22:55:00.516Z,212.70
2024-01-31T22:57:29.640Z,210.17
2024-01-31T22:59:57.201Z,206.87
2024-01-31T23:02:24.648Z,193.17
2024-01-31T23:04:52.311Z,199.13
2024-01-31T23:07:19.927Z,207.30
2024-01-31T23:09:47.764Z,217.67
2024-01-31T23:12:15.789Z,227.63
2024-01-31T23:14:46.795Z,218.87
2024-01-31T23:17:14.441Z,226.03
2024-01-31T23:19:42.159Z,228.60
2024-01-31T23:22:09.676Z,228.30
2024-01-31T23:24:37.156Z,237.73
2024-01-31T23:27:04.637Z,242.93
2024-01-31T23:29:32.260Z,231.60
2024-01-31T23:31:59.868Z,220.17
2024-01-31T23:34:27.374Z,216.67
2024-01-31T23:36:55.073Z,216.67
2024-01-31T23:39:22.636Z,211.37
2024-01-31T23:41:50.145Z,229.90
2024-01-31T23:44:17.733Z,219.17
2024-01-31T23:46:45.377Z,223.57
2024-01-31T23:49:13.064Z,232.53
2024-01-31T23:51:40.522Z,242.03
2024-01-31T23:54:08.132Z,250.17
2024-01-31T23:56:35.730Z,261.93
2024-01-31T23:59:03.290Z,275.03
